createdAt,value
2023-05-27T00:00:40.047Z,16.05
2023-05-27T00:03:06.380Z,15.91
2023-05-27T00:05:32.685Z,15.82
2023-05-27T00:07:58.893Z,15.63
2023-05-27T00:10:25.087Z,15.49
2023-05-27T00:12:51.309Z,15.45
2023-05-27T00:15:17.514Z,15.43
2023-05-27T00:17:43.745Z,15.40
2023-05-27T00:20:10.101Z,15.44
2023-05-27T00:22:36.327Z,15.42
2023-05-27T00:25:02.535Z,15.32
2023-05-27T00:27:28.785Z,15.29
2023-05-27T00:29:55.042Z,15.16
2023-05-27T00:32:21.416Z,15.07
2023-05-27T00:34:47.697Z,15.01
2023-05-27T00:37:13.930Z,14.95
2023-05-27T00:39:40.122Z,14.97
2023-05-27T00:42:06.378Z,14.84
2023-05-27T00:44:32.612Z,14.76
2023-05-27T00:46:58.922Z,14.74
2023-05-27T00:49:25.116Z,14.77
2023-05-27T00:51:51.298Z,14.84
2023-05-27T00:54:17.556Z,14.98
2023-05-27T00:56:43.770Z,15.03
2023-05-27T00:59:09.994Z,15.06
2023-05-27T01:01:36.246Z,15.08
2023-05-27T01:04:03.580Z,15.21
2023-05-27T01:06:29.808Z,15.30
2023-05-27T01:08:56.050Z,15.39
2023-05-27T01:11:22.265Z,15.36
2023-05-27T01:13:48.448Z,15.34
2023-05-27T01:16:14.651Z,15.27
2023-05-27T01:18:40.859Z,15.21
2023-05-27T01:21:07.104Z,15.17
2023-05-27T01:23:33.286Z,15.18
2023-05-27T01:26:01.720Z,15.28
2023-05-27T01:28:27.966Z,15.29
2023-05-27T01:30:54.151Z,15.34
2023-05-27T01:33:20.393Z,15.44
2023-05-27T01:35:46.683Z,15.47
2023-05-27T01:38:12.924Z,15.44
2023-05-27T01:40:39.315Z,15.47
2023-05-27T01:43:05.521Z,15.55
2023-05-27T01:45:31.746Z,15.63
2023-05-27T01:47:57.985Z,15.71
2023-05-27T01:50:24.201Z,15.80
2023-05-27T01:52:50.368Z,15.82
2023-05-27T01:55:16.571Z,15.89
2023-05-27T01:57:42.814Z,15.94
2023-05-27T02:00:09.052Z,15.94
2023-05-27T02:02:35.333Z,15.88
2023-05-27T02:05:01.577Z,15.91
2023-05-27T02:07:27.854Z,15.87
2023-05-27T02:09:54.082Z,16.09
2023-05-27T02:12:20.373Z,16.03
2023-05-27T02:14:46.656Z,15.96
2023-05-27T02:17:12.873Z,15.94
2023-05-27T02:19:39.162Z,15.84
2023-05-27T02:22:05.380Z,15.58
2023-05-27T02:24:31.554Z,15.22
2023-05-27T02:26:57.753Z,14.85
2023-05-27T02:29:23.968Z,14.38
2023-05-27T02:31:50.192Z,14.02
2023-05-27T02:34:16.398Z,13.84
2023-05-27T02:36:42.878Z,13.66
2023-05-27T02:39:09.110Z,13.56
2023-05-27T02:41:35.284Z,13.48
2023-05-27T02:44:01.505Z,13.38
2023-05-27T02:46:27.830Z,13.35
2023-05-27T02:48:54.081Z,13.33
2023-05-27T02:51:20.260Z,13.26
2023-05-27T02:53:46.491Z,13.19
2023-05-27T02:56:12.685Z,13.14
2023-05-27T02:58:38.858Z,13.08
2023-05-27T03:01:05.074Z,13.07
2023-05-27T03:03:31.335Z,13.08
2023-05-27T03:05:57.599Z,13.13
2023-05-27T03:08:23.824Z,13.12
2023-05-27T03:10:49.999Z,13.09
2023-05-27T03:13:16.232Z,13.07
2023-05-27T03:15:42.391Z,13.09
2023-05-27T03:18:08.686Z,13.09
2023-05-27T03:20:35.016Z,13.11
2023-05-27T03:23:01.306Z,13.08
2023-05-27T03:25:27.593Z,13.20
2023-05-27T03:27:53.805Z,13.27
2023-05-27T03:30:20.001Z,13.31
2023-05-27T03:32:46.254Z,13.28
2023-05-27T03:35:12.576Z,13.22
2023-05-27T03:37:38.786Z,13.10
2023-05-27T03:40:05.084Z,13.03
2023-05-27T03:42:31.306Z,12.91
2023-05-27T03:44:57.487Z,12.86
2023-05-27T03:47:23.780Z,12.81
2023-05-27T03:49:50.018Z,12.69
2023-05-27T03:52:16.277Z,12.62
2023-05-27T03:54:42.477Z,12.54
2023-05-27T03:57:08.728Z,12.53
2023-05-27T03:59:34.951Z,12.49
2023-05-27T04:02:01.217Z,12.45
2023-05-27T04:04:27.526Z,12.42
2023-05-27T04:06:53.752Z,12.38
2023-05-27T04:09:19.984Z,12.35
2023-05-27T04:11:46.207Z,12.33
2023-05-27T04:14:12.513Z,12.33
2023-05-27T04:16:38.747Z,12.32
2023-05-27T04:19:04.970Z,12.27
2023-05-27T04:21:31.202Z,12.30
2023-05-27T04:23:57.424Z,12.33
2023-05-27T04:26:23.627Z,12.42
2023-05-27T04:28:49.790Z,12.49
2023-05-27T04:31:16.056Z,12.56
2023-05-27T04:33:42.302Z,12.65
2023-05-27T04:36:22.206Z,12.74
2023-05-27T04:38:48.398Z,12.77
2023-05-27T04:41:14.624Z,12.89
2023-05-27T04:43:40.857Z,12.95
2023-05-27T04:46:07.123Z,13.00
2023-05-27T04:48:33.440Z,13.04
2023-05-27T04:50:59.660Z,13.06
2023-05-27T04:53:25.863Z,13.10
2023-05-27T04:55:52.126Z,13.20
2023-05-27T04:58:18.426Z,13.25
2023-05-27T05:00:44.672Z,13.48
2023-05-27T05:03:10.982Z,13.57
2023-05-27T05:05:37.304Z,13.61
2023-05-27T05:08:04.052Z,13.67
2023-05-27T05:10:30.254Z,13.75
2023-05-27T05:12:56.477Z,13.90
2023-05-27T05:15:22.708Z,14.07
2023-05-27T05:17:48.940Z,14.29
2023-05-27T05:20:15.222Z,14.52
2023-05-27T05:22:41.449Z,14.59
2023-05-27T05:25:07.654Z,14.65
2023-05-27T05:27:33.863Z,14.82
2023-05-27T05:30:00.045Z,14.90
2023-05-27T05:32:26.357Z,15.06
2023-05-27T05:34:52.573Z,15.29
2023-05-27T05:37:18.774Z,15.44
2023-05-27T05:39:44.975Z,15.71
2023-05-27T05:42:11.281Z,16.00
2023-05-27T05:44:37.519Z,16.21
2023-05-27T05:47:03.753Z,16.35
2023-05-27T05:49:30.002Z,16.54
2023-05-27T05:51:56.763Z,16.60
2023-05-27T05:54:22.941Z,16.70
2023-05-27T05:56:49.150Z,16.84
2023-05-27T05:59:15.354Z,16.91
2023-05-27T06:01:41.592Z,17.04
2023-05-27T06:04:08.011Z,17.14
2023-05-27T06:06:34.343Z,17.32
2023-05-27T06:09:00.572Z,17.41
2023-05-27T06:11:26.784Z,17.49
2023-05-27T06:13:53.002Z,17.63
2023-05-27T06:16:19.424Z,17.78
2023-05-27T06:18:45.641Z,17.82
2023-05-27T06:21:11.820Z,17.89
2023-05-27T06:23:38.051Z,18.08
2023-05-27T06:26:04.277Z,18.26
2023-05-27T06:28:30.488Z,18.30
2023-05-27T06:30:56.736Z,18.31
2023-05-27T06:33:22.896Z,18.20
2023-05-27T06:38:32.304Z,18.12
2023-05-27T06:40:58.535Z,18.20
2023-05-27T06:43:24.790Z,18.41
2023-05-27T06:46:03.137Z,18.46
2023-05-27T06:48:31.634Z,18.72
2023-05-27T06:50:57.874Z,18.91
2023-05-27T06:53:24.068Z,19.06
2023-05-27T06:55:50.258Z,19.09
2023-05-27T06:58:16.499Z,19.34
2023-05-27T07:00:42.705Z,19.46
2023-05-27T07:03:08.932Z,19.54
2023-05-27T07:05:35.226Z,19.59
2023-05-27T07:08:01.505Z,19.71
2023-05-27T07:10:27.740Z,19.65
2023-05-27T07:12:53.994Z,19.75
2023-05-27T07:15:20.182Z,19.53
2023-05-27T07:17:46.476Z,19.52
2023-05-27T07:20:12.801Z,19.90
2023-05-27T07:22:39.088Z,19.98
2023-05-27T07:25:05.368Z,20.21
2023-05-27T07:27:32.592Z,20.42
2023-05-27T07:29:58.800Z,20.39
2023-05-27T07:32:25.099Z,20.12
2023-05-27T07:34:51.297Z,20.11
2023-05-27T07:37:17.533Z,20.14
2023-05-27T07:39:43.858Z,20.41
2023-05-27T07:42:10.083Z,20.76
2023-05-27T07:44:36.305Z,21.12
2023-05-27T07:47:02.637Z,21.33
2023-05-27T07:49:28.946Z,21.52
2023-05-27T07:51:55.152Z,21.72
2023-05-27T07:54:21.320Z,21.84
2023-05-27T07:56:47.575Z,22.26
2023-05-27T07:59:13.896Z,22.22
2023-05-27T08:01:40.330Z,22.07
2023-05-27T08:04:16.660Z,22.51
2023-05-27T08:06:50.290Z,22.22
2023-05-27T08:09:16.524Z,22.01
2023-05-27T08:11:42.756Z,21.85
2023-05-27T08:14:08.932Z,21.90
2023-05-27T08:16:35.181Z,21.70
2023-05-27T08:19:01.617Z,22.06
2023-05-27T08:21:27.834Z,22.39
2023-05-27T08:26:44.118Z,22.70
2023-05-27T08:29:10.404Z,22.51
2023-05-27T08:31:36.628Z,22.72
2023-05-27T08:34:02.951Z,22.57
2023-05-27T08:36:29.241Z,22.59
2023-05-27T08:38:55.520Z,22.46
2023-05-27T08:41:21.735Z,22.08
2023-05-27T08:43:47.942Z,22.39
2023-05-27T08:46:14.290Z,22.68
2023-05-27T08:48:40.584Z,22.65
2023-05-27T08:51:06.958Z,22.73
2023-05-27T08:53:33.255Z,22.81
2023-05-27T08:55:59.604Z,23.26
2023-05-27T08:58:25.810Z,23.26
2023-05-27T09:00:52.252Z,22.93
2023-05-27T09:03:18.667Z,22.93
2023-05-27T09:05:44.869Z,23.34
2023-05-27T09:08:11.057Z,23.64
2023-05-27T09:10:37.342Z,23.71
2023-05-27T09:13:03.615Z,23.51
2023-05-27T09:15:29.859Z,23.77
2023-05-27T09:17:56.058Z,23.73
2023-05-27T09:20:22.466Z,23.80
2023-05-27T09:22:48.715Z,23.98
2023-05-27T09:25:17.987Z,24.12
2023-05-27T09:27:44.236Z,24.22
2023-05-27T09:30:10.634Z,23.99
2023-05-27T09:32:36.945Z,23.81
2023-05-27T09:35:03.244Z,24.11
2023-05-27T09:37:29.558Z,24.28
2023-05-27T09:39:57.907Z,24.46
2023-05-27T09:42:24.145Z,24.45
2023-05-27T09:44:50.398Z,24.43
2023-05-27T09:47:16.753Z,24.63
2023-05-27T09:49:43.071Z,24.73
2023-05-27T09:52:09.303Z,24.60
2023-05-27T09:54:35.492Z,24.56
2023-05-27T09:57:01.694Z,25.00
2023-05-27T09:59:27.974Z,24.99
2023-05-27T10:01:54.294Z,24.75
2023-05-27T10:04:20.563Z,24.86
2023-05-27T10:06:46.813Z,25.13
2023-05-27T10:09:13.118Z,25.07
2023-05-27T10:11:39.396Z,24.63
2023-05-27T10:14:05.753Z,24.78
2023-05-27T10:16:32.065Z,24.83
2023-05-27T10:18:58.330Z,25.09
2023-05-27T10:21:24.716Z,25.15
2023-05-27T10:23:50.976Z,25.24
2023-05-27T10:26:17.269Z,25.27
2023-05-27T10:28:43.674Z,25.33
2023-05-27T10:31:10.011Z,25.23
2023-05-27T10:33:36.484Z,25.13
2023-05-27T10:36:02.779Z,25.17
2023-05-27T10:38:29.032Z,25.22
2023-05-27T10:40:55.225Z,25.49
2023-05-27T10:43:21.541Z,25.73
2023-05-27T10:45:47.769Z,26.01
2023-05-27T10:48:14.085Z,26.35
2023-05-27T10:50:40.568Z,26.29
2023-05-27T10:53:06.810Z,26.75
2023-05-27T10:55:33.047Z,26.89
2023-05-27T10:57:59.361Z,27.46
2023-05-27T11:00:25.657Z,27.59
2023-05-27T11:02:54.249Z,27.92
2023-05-27T11:05:20.499Z,28.05
2023-05-27T11:07:47.961Z,28.53
2023-05-27T11:10:31.770Z,28.70
2023-05-27T11:12:58.040Z,29.12
2023-05-27T11:15:24.523Z,29.24
2023-05-27T11:17:50.835Z,28.92
2023-05-27T11:20:17.311Z,28.63
2023-05-27T11:22:43.600Z,27.83
2023-05-27T11:25:09.827Z,27.69
2023-05-27T11:27:36.087Z,27.24
2023-05-27T11:30:02.352Z,26.95
2023-05-27T11:32:28.705Z,26.72
2023-05-27T11:34:55.047Z,26.48
2023-05-27T11:37:21.258Z,26.73
2023-05-27T11:39:47.449Z,26.73
2023-05-27T11:42:13.626Z,26.61
2023-05-27T11:44:39.895Z,26.52
2023-05-27T11:47:06.157Z,26.79
2023-05-27T11:49:32.422Z,26.88
2023-05-27T11:51:58.694Z,26.57
2023-05-27T11:54:24.912Z,26.63
2023-05-27T11:56:51.158Z,26.78
2023-05-27T11:59:17.536Z,26.67
2023-05-27T12:01:43.795Z,26.85
2023-05-27T12:04:10.044Z,26.82
2023-05-27T12:06:36.313Z,26.61
2023-05-27T12:09:02.531Z,26.53
2023-05-27T12:11:28.731Z,26.62
2023-05-27T12:13:54.959Z,26.66
2023-05-27T12:16:21.213Z,26.68
2023-05-27T12:18:47.435Z,26.85
2023-05-27T12:21:13.712Z,27.01
2023-05-27T12:23:39.940Z,27.27
2023-05-27T12:26:06.182Z,27.08
2023-05-27T12:28:32.674Z,27.34
2023-05-27T12:30:58.998Z,27.25
2023-05-27T12:33:25.366Z,27.21
2023-05-27T12:35:51.783Z,27.28
2023-05-27T12:38:18.180Z,27.17
2023-05-27T12:40:44.429Z,27.13
2023-05-27T12:43:10.693Z,27.27
2023-05-27T12:45:36.961Z,27.28
2023-05-27T12:48:03.207Z,27.32
2023-05-27T12:50:29.523Z,27.42
2023-05-27T12:52:55.825Z,27.61
2023-05-27T12:55:22.081Z,27.66
2023-05-27T12:57:48.273Z,27.35
2023-05-27T13:00:14.485Z,27.52
2023-05-27T13:02:40.804Z,27.52
2023-05-27T13:05:06.984Z,27.83
2023-05-27T13:07:33.221Z,27.70
2023-05-27T13:10:01.783Z,27.74
2023-05-27T13:12:29.478Z,27.56
2023-05-27T13:14:55.859Z,27.94
2023-05-27T13:17:22.154Z,27.55
2023-05-27T13:19:50.698Z,27.20
2023-05-27T13:22:19.444Z,27.09
2023-05-27T13:24:45.634Z,27.14
2023-05-27T13:27:11.880Z,27.30
2023-05-27T13:29:38.089Z,27.48
2023-05-27T13:32:04.417Z,27.53
2023-05-27T13:34:30.586Z,27.46
2023-05-27T13:36:56.789Z,27.57
2023-05-27T13:39:22.973Z,27.50
2023-05-27T13:41:49.155Z,27.45
2023-05-27T13:47:05.415Z,28.20
2023-05-27T13:49:31.697Z,28.12
2023-05-27T13:51:57.929Z,28.12
2023-05-27T13:54:24.218Z,28.66
2023-05-27T13:56:50.438Z,28.69
2023-05-27T13:59:16.652Z,28.89
2023-05-27T14:01:42.928Z,28.81
2023-05-27T14:04:09.240Z,28.71
2023-05-27T14:06:35.504Z,29.03
2023-05-27T14:09:01.775Z,28.73
2023-05-27T14:11:27.966Z,28.45
2023-05-27T14:13:54.132Z,28.37
2023-05-27T14:16:20.502Z,28.48
2023-05-27T14:18:46.722Z,28.73
2023-05-27T14:21:12.967Z,28.41
2023-05-27T14:23:39.273Z,28.42
2023-05-27T14:26:05.488Z,28.48
2023-05-27T14:28:31.788Z,28.78
2023-05-27T14:30:58.082Z,28.78
2023-05-27T14:33:24.370Z,28.82
2023-05-27T14:35:50.861Z,29.04
2023-05-27T14:38:17.271Z,29.00
2023-05-27T14:40:46.241Z,29.29
2023-05-27T14:43:12.527Z,28.47
2023-05-27T14:45:38.770Z,28.62
2023-05-27T14:48:05.039Z,28.69
2023-05-27T14:50:31.303Z,28.63
2023-05-27T14:52:57.480Z,28.60
2023-05-27T14:55:23.762Z,28.77
2023-05-27T14:57:50.068Z,28.83
2023-05-27T15:00:16.341Z,28.92
2023-05-27T15:02:42.807Z,28.86
2023-05-27T15:05:09.106Z,28.40
2023-05-27T15:07:35.325Z,28.93
2023-05-27T15:10:01.583Z,29.04
2023-05-27T15:12:27.804Z,28.97
2023-05-27T15:14:54.013Z,29.13
2023-05-27T15:17:20.294Z,29.13
2023-05-27T15:19:46.696Z,29.23
2023-05-27T15:22:12.872Z,29.03
2023-05-27T15:24:39.127Z,29.18
2023-05-27T15:27:05.471Z,28.70
2023-05-27T15:29:31.684Z,29.00
2023-05-27T15:31:57.950Z,29.01
2023-05-27T15:34:24.324Z,28.91
2023-05-27T15:36:50.569Z,29.03
2023-05-27T15:39:16.761Z,29.26
2023-05-27T15:41:43.002Z,29.35
2023-05-27T15:44:09.380Z,29.01
2023-05-27T15:46:35.580Z,29.16
2023-05-27T15:49:01.847Z,29.12
2023-05-27T15:51:28.068Z,28.62
2023-05-27T15:53:54.273Z,28.98
2023-05-27T15:56:20.562Z,28.93
2023-05-27T15:58:46.788Z,29.23
2023-05-27T16:01:13.018Z,29.42
2023-05-27T16:03:39.282Z,29.50
2023-05-27T16:06:05.483Z,28.97
2023-05-27T16:08:31.668Z,29.46
2023-05-27T16:10:57.918Z,29.60
2023-05-27T16:13:24.145Z,29.49
2023-05-27T16:15:51.751Z,29.38
2023-05-27T16:18:18.164Z,29.58
2023-05-27T16:20:44.584Z,29.49
2023-05-27T16:23:12.573Z,29.33
2023-05-27T16:25:39.345Z,29.32
2023-05-27T16:28:05.640Z,29.42
2023-05-27T16:30:31.862Z,29.40
2023-05-27T16:32:58.137Z,29.61
2023-05-27T16:35:24.387Z,29.70
2023-05-27T16:37:50.622Z,29.55
2023-05-27T16:40:16.854Z,29.46
2023-05-27T16:42:43.103Z,29.37
2023-05-27T16:45:09.370Z,28.96
2023-05-27T16:47:35.742Z,28.65
2023-05-27T16:50:02.097Z,28.33
2023-05-27T16:52:28.297Z,27.77
2023-05-27T16:54:54.569Z,27.62
2023-05-27T16:57:20.813Z,27.56
2023-05-27T16:59:47.051Z,27.48
2023-05-27T17:02:13.440Z,27.17
2023-05-27T17:04:39.653Z,26.78
2023-05-27T17:07:05.966Z,26.37
2023-05-27T17:09:32.192Z,26.10
2023-05-27T17:11:58.489Z,25.83
2023-05-27T17:14:24.809Z,25.42
2023-05-27T17:16:51.061Z,25.37
2023-05-27T17:19:17.335Z,25.11
2023-05-27T17:21:43.592Z,25.02
2023-05-27T17:24:09.842Z,24.70
2023-05-27T17:26:36.073Z,24.59
2023-05-27T17:29:02.263Z,24.51
2023-05-27T17:31:28.692Z,24.45
2023-05-27T17:33:54.994Z,24.38
2023-05-27T17:36:21.339Z,24.30
2023-05-27T17:38:47.587Z,24.26
2023-05-27T17:41:13.816Z,24.23
2023-05-27T17:43:40.150Z,24.15
2023-05-27T17:46:06.374Z,24.09
2023-05-27T17:48:32.762Z,24.05
2023-05-27T17:50:59.059Z,23.98
2023-05-27T17:53:25.307Z,23.94
2023-05-27T17:55:51.507Z,23.89
2023-05-27T17:58:17.758Z,23.84
2023-05-27T18:00:45.096Z,23.74
2023-05-27T18:03:12.987Z,23.73
2023-05-27T18:05:39.267Z,23.67
2023-05-27T18:08:09.486Z,23.51
2023-05-27T18:10:35.817Z,23.50
2023-05-27T18:13:02.030Z,23.45
2023-05-27T18:15:28.218Z,23.41
2023-05-27T18:17:54.502Z,23.37
2023-05-27T18:20:20.834Z,23.32
2023-05-27T18:22:47.236Z,23.35
2023-05-27T18:25:13.494Z,23.27
2023-05-27T18:27:39.704Z,23.21
2023-05-27T18:30:05.993Z,23.16
2023-05-27T18:32:32.489Z,23.09
2023-05-27T18:34:58.725Z,23.03
2023-05-27T18:37:24.960Z,22.96
2023-05-27T18:39:51.214Z,22.91
2023-05-27T18:42:17.450Z,22.76
2023-05-27T18:44:43.670Z,22.67
2023-05-27T18:47:09.877Z,22.58
2023-05-27T18:49:36.106Z,22.51
2023-05-27T18:52:02.324Z,22.39
2023-05-27T18:54:28.538Z,22.37
2023-05-27T18:56:54.973Z,22.29
2023-05-27T18:59:21.212Z,22.11
2023-05-27T19:01:47.536Z,21.99
2023-05-27T19:04:13.925Z,21.88
2023-05-27T19:06:40.159Z,21.77
2023-05-27T19:09:06.446Z,21.64
2023-05-27T19:11:32.749Z,21.58
2023-05-27T19:13:59.030Z,21.56
2023-05-27T19:16:25.369Z,21.50
2023-05-27T19:18:51.663Z,21.44
2023-05-27T19:21:17.893Z,21.38
2023-05-27T19:23:44.094Z,21.35
2023-05-27T19:26:10.407Z,21.31
2023-05-27T19:28:36.764Z,21.29
2023-05-27T19:31:02.992Z,21.25
2023-05-27T19:33:29.278Z,21.22
2023-05-27T19:35:55.512Z,21.18
2023-05-27T19:38:21.722Z,21.09
2023-05-27T19:40:47.976Z,21.04
2023-05-27T19:43:14.166Z,20.98
2023-05-27T19:45:40.422Z,20.93
2023-05-27T19:48:06.709Z,20.86
2023-05-27T19:50:32.936Z,20.76
2023-05-27T19:52:59.148Z,20.69
2023-05-27T19:55:25.421Z,20.66
2023-05-27T19:57:51.722Z,20.58
2023-05-27T20:00:17.994Z,20.47
2023-05-27T20:02:44.279Z,20.34
2023-05-27T20:05:10.694Z,20.26
2023-05-27T20:07:36.966Z,20.20
2023-05-27T20:10:03.256Z,20.11
2023-05-27T20:12:29.563Z,19.91
2023-05-27T20:14:55.893Z,19.91
2023-05-27T20:17:22.249Z,19.88
2023-05-27T20:19:51.102Z,19.82
2023-05-27T20:22:17.442Z,19.77
2023-05-27T20:24:43.856Z,19.65
2023-05-27T20:27:10.115Z,19.58
2023-05-27T20:29:36.372Z,19.48
2023-05-27T20:32:07.139Z,19.40
2023-05-27T20:34:33.617Z,19.32
2023-05-27T20:36:59.922Z,19.20
2023-05-27T20:39:26.149Z,19.07
2023-05-27T20:41:52.419Z,19.05
2023-05-27T20:44:18.769Z,18.98
2023-05-27T20:46:45.051Z,18.92
2023-05-27T20:49:11.347Z,18.77
2023-05-27T20:51:37.611Z,18.74
2023-05-27T20:54:06.148Z,18.69
2023-05-27T20:56:32.425Z,18.63
2023-05-27T20:58:58.644Z,18.54
2023-05-27T21:01:24.982Z,18.50
2023-05-27T21:03:51.362Z,18.45
2023-05-27T21:06:17.662Z,18.37
2023-05-27T21:08:43.851Z,18.27
2023-05-27T21:11:10.095Z,18.25
2023-05-27T21:13:36.597Z,18.19
2023-05-27T21:16:02.898Z,18.13
2023-05-27T21:18:29.274Z,18.06
2023-05-27T21:20:56.274Z,18.02
2023-05-27T21:23:25.995Z,17.95
2023-05-27T21:25:52.486Z,17.88
2023-05-27T21:28:20.780Z,17.82
2023-05-27T21:30:47.032Z,17.72
2023-05-27T21:33:13.341Z,17.68
2023-05-27T21:35:39.532Z,17.60
2023-05-27T21:38:05.774Z,17.50
2023-05-27T21:40:31.973Z,17.37
2023-05-27T21:42:58.225Z,17.24
2023-05-27T21:45:24.492Z,17.17
2023-05-27T21:47:50.870Z,17.03
2023-05-27T21:50:17.173Z,16.99
2023-05-27T21:52:43.383Z,16.77
2023-05-27T21:55:09.645Z,16.79
2023-05-27T21:57:35.849Z,16.70
2023-05-27T22:00:02.071Z,16.60
2023-05-27T22:02:28.437Z,16.48
2023-05-27T22:04:54.722Z,16.39
2023-05-27T22:07:20.994Z,16.32
2023-05-27T22:09:47.274Z,16.27
2023-05-27T22:12:13.617Z,16.21
2023-05-27T22:14:39.898Z,16.29
2023-05-27T22:17:06.144Z,16.24
2023-05-27T22:19:32.358Z,16.25
2023-05-27T22:21:58.553Z,16.22
2023-05-27T22:24:24.757Z,16.19
2023-05-27T22:26:50.992Z,16.15
2023-05-27T22:29:17.241Z,16.22
2023-05-27T22:31:43.530Z,16.28
2023-05-27T22:34:09.744Z,16.38
2023-05-27T22:36:36.151Z,16.43
2023-05-27T22:39:02.523Z,16.51
2023-05-27T22:41:28.749Z,16.65
2023-05-27T22:43:54.991Z,16.75
2023-05-27T22:46:21.256Z,16.96
2023-05-27T22:48:47.486Z,17.05
2023-05-27T22:51:13.690Z,17.06
2023-05-27T22:53:39.867Z,17.10
2023-05-27T22:56:06.138Z,17.11
2023-05-27T22:58:32.411Z,17.17
2023-05-27T23:00:58.597Z,17.13
2023-05-27T23:03:24.923Z,17.22
2023-05-27T23:05:51.196Z,17.18
2023-05-27T23:08:17.390Z,17.03
2023-05-27T23:10:43.638Z,16.73
2023-05-27T23:13:09.912Z,16.36
2023-05-27T23:15:36.114Z,16.08
2023-05-27T23:18:02.351Z,15.89
2023-05-27T23:20:28.628Z,15.73
2023-05-27T23:22:54.867Z,15.61
2023-05-27T23:25:21.054Z,15.54
2023-05-27T23:27:49.568Z,15.42
2023-05-27T23:30:15.809Z,15.42
2023-05-27T23:32:42.099Z,15.44
2023-05-27T23:35:08.374Z,15.38
2023-05-27T23:37:34.595Z,15.27
2023-05-27T23:40:00.791Z,15.01
2023-05-27T23:42:26.965Z,14.88
2023-05-27T23:44:53.207Z,14.76
2023-05-27T23:47:19.433Z,14.77
2023-05-27T23:49:45.639Z,14.68
2023-05-27T23:52:11.854Z,14.74
2023-05-27T23:54:38.059Z,14.66
2023-05-27T23:57:04.283Z,14.62
2023-05-27T23:59:30.466Z,14.56
